Time;durP1;ratioP1;P1;durP2;ratioP2;P2;SDS_P1;SDS_P2;PMS_P1;PMS_P2;Temp;Humidity;BMP_temperature;BMP_pressure;BME280_temperature;BME280_humidity;BME280_pressure;Samples;Min_cycle;Max_cycle;Signal;HPM_P1;HPM_P2
2021/01/31 00:00:00;;;;;;;35.95;16.65;;;;;;;-4.04;83.51;99099.58;1659455;84;26507;-81
2021/01/31 00:02:27;;;;;;;36.13;16.57;;;;;;;-4.02;83.66;99099.46;1657902;84;25718;-81
2021/01/31 00:04:53;;;;;;;34.70;15.15;;;;;;;-4.02;83.59;99109.20;1658017;84;25798;-81
2021/01/31 00:07:19;;;;;;;34.50;16.07;;;;;;;-4.01;83.55;99111.31;1657076;84;25895;-81
2021/01/31 00:09:49;;;;;;;34.33;15.78;;;;;;;-4.04;83.46;99112.77;1658087;84;25785;-81
2021/01/31 00:12:16;;;;;;;34.10;16.95;;;;;;;-4.05;83.50;99114.98;1659969;84;25918;-79
2021/01/31 00:14:42;;;;;;;34.00;17.50;;;;;;;-4.04;83.58;99120.42;1657092;84;26313;-80
2021/01/31 00:17:09;;;;;;;28.67;15.40;;;;;;;-4.05;83.45;99111.16;1657132;84;25758;-81
2021/01/31 00:19:35;;;;;;;29.32;13.62;;;;;;;-4.03;83.43;99120.80;1658564;84;26575;-81
2021/01/31 00:22:02;;;;;;;29.63;16.48;;;;;;;-4.03;83.33;99123.36;1658313;84;25769;-81
2021/01/31 00:24:29;;;;;;;30.48;15.08;;;;;;;-4.09;83.05;99128.41;1658202;84;25802;-81
2021/01/31 00:26:57;;;;;;;30.95;16.23;;;;;;;-4.09;83.16;99128.41;1658050;84;25662;-81
2021/01/31 00:29:26;;;;;;;25.55;14.30;;;;;;;-4.10;83.09;99133.14;1657284;84;26660;-81
2021/01/31 00:31:52;;;;;;;33.80;16.57;;;;;;;-4.08;83.07;99133.86;1656532;84;25766;-81
2021/01/31 00:34:20;;;;;;;27.30;14.53;;;;;;;-4.11;82.90;99133.26;1657479;84;25889;-81
2021/01/31 00:36:47;;;;;;;32.42;15.48;;;;;;;-4.14;82.91;99138.56;1657208;84;25831;-81
2021/01/31 00:39:13;;;;;;;30.40;15.03;;;;;;;;;;1658730;84;25957;-81
2021/01/31 00:41:40;;;;;;;28.73;15.85;;;;;;;-4.16;82.88;99145.03;1657175;84;26487;-82
2021/01/31 00:44:08;;;;;;;28.55;14.50;;;;;;;-4.17;82.69;99147.23;1658172;85;25868;-81
2021/01/31 00:46:38;;;;;;;26.82;14.35;;;;;;;-4.20;82.48;99151.70;1657446;84;26572;-80
2021/01/31 00:49:07;;;;;;;26.73;13.83;;;;;;;-4.26;82.50;99149.94;1657161;84;25976;-81
2021/01/31 00:51:33;;;;;;;31.17;14.23;;;;;;;-4.31;82.32;99149.86;1657220;84;25712;-81
2021/01/31 00:54:00;;;;;;;28.92;15.85;;;;;;;-4.37;82.33;99152.36;1636993;85;27207;-81
2021/01/31 00:56:26;;;;;;;28.57;14.43;;;;;;;-4.35;82.56;99151.80;1658037;84;25964;-81
2021/01/31 00:58:53;;;;;;;29.40;16.37;;;;;;;-4.29;82.61;99162.87;1658098;84;25793;-81
2021/01/31 01:01:20;;;;;;;29.90;16.62;;;;;;;-4.26;82.50;99169.50;1657016;84;25850;-81
2021/01/31 01:03:46;;;;;;;37.00;17.07;;;;;;;-4.31;82.30;99169.83;1657339;84;25805;-81
2021/01/31 01:06:15;;;;;;;28.32;16.95;;;;;;;-4.33;82.33;99169.56;1658638;84;25987;-81
2021/01/31 01:08:42;;;;;;;30.17;15.78;;;;;;;-4.36;82.35;99174.41;1635748;84;43057;-81
2021/01/31 01:11:09;;;;;;;26.68;15.43;;;;;;;-4.35;82.51;99179.05;1618123;86;25667;-81
2021/01/31 01:13:35;;;;;;;24.65;12.98;;;;;;;-4.36;82.54;99179.97;1616239;86;26613;-81
2021/01/31 01:16:01;;;;;;;29.00;14.75;;;;;;;-4.31;82.71;99182.58;1617034;86;25856;-81
2021/01/31 01:18:28;;;;;;;25.77;13.88;;;;;;;-4.33;82.71;99185.68;1619459;86;25773;-81
2021/01/31 01:20:54;;;;;;;24.95;13.53;;;;;;;-4.30;82.79;99180.84;1618602;86;26669;-81
2021/01/31 01:23:20;;;;;;;29.63;14.03;;;;;;;-4.30;82.86;99186.75;1621537;86;26015;-81
2021/01/31 01:25:47;;;;;;;28.05;12.82;;;;;;;-4.23;83.08;99179.50;1619977;86;25798;-81
2021/01/31 01:28:15;;;;;;;26.33;14.25;;;;;;;-4.17;82.96;99176.57;1614515;86;26012;-81
2021/01/31 01:30:42;;;;;;;25.95;13.68;;;;;;;-4.14;82.98;99180.20;1611787;86;25845;-81
2021/01/31 01:33:08;;;;;;;25.55;13.15;;;;;;;-4.10;82.98;99183.35;1610296;86;25729;-81
2021/01/31 01:35:34;;;;;;;26.48;13.25;;;;;;;-4.08;82.92;99180.25;1611584;86;25837;-81
2021/01/31 01:38:01;;;;;;;32.45;13.90;;;;;;;-4.05;82.93;99175.75;1613545;86;25763;-80
2021/01/31 01:40:35;;;;;;;27.67;15.03;;;;;;;-4.04;82.97;99181.66;1613011;86;25900;-81
2021/01/31 01:43:04;;;;;;;25.35;13.75;;;;;;;-4.02;82.98;99174.73;1610667;86;25791;-81
2021/01/31 01:45:31;;;;;;;25.32;13.20;;;;;;;-3.96;83.05;99184.98;1612740;86;25941;-81
2021/01/31 01:48:16;;;;;;;27.58;13.25;;;;;;;-3.94;82.93;99178.87;1613839;86;25758;-81
2021/01/31 01:50:53;;;;;;;27.73;14.55;;;;;;;-3.97;82.88;99180.81;1611009;86;25950;-81
2021/01/31 01:53:22;;;;;;;25.55;13.93;;;;;;;-3.98;82.98;99183.83;1612672;86;25884;-81
2021/01/31 01:56:03;;;;;;;28.52;15.70;;;;;;;-3.97;82.95;99182.91;1597915;86;26142;-81
2021/01/31 01:58:29;;;;;;;;;;;;;;;-3.98;83.06;99182.98;1612989;86;26414;-81
2021/01/31 02:00:57;;;;;;;27.35;14.73;;;;;;;-3.93;83.07;99189.45;1611456;86;25723;-81
2021/01/31 02:03:29;;;;;;;23.25;13.45;;;;;;;-3.96;82.98;99188.35;1611307;86;25799;-81
2021/01/31 02:06:19;;;;;;;27.77;14.03;;;;;;;-3.93;83.05;99192.00;1611048;86;26308;-80
2021/01/31 02:08:46;;;;;;;22.93;12.65;;;;;;;-3.87;83.09;99203.53;1625970;85;25836;-81
2021/01/31 02:11:14;;;;;;;24.72;13.40;;;;;;;-3.89;82.88;99202.81;1646845;84;26468;-81
2021/01/31 02:13:45;;;;;;;24.32;12.65;;;;;;;-3.86;83.07;99202.61;1643461;85;26503;-81
2021/01/31 02:16:19;;;;;;;21.23;12.33;;;;;;;-3.88;82.93;99198.87;1640416;84;25794;-81
2021/01/31 02:19:27;;;;;;;21.48;10.40;;;;;;;-3.92;82.85;99200.00;1642362;84;25997;-81
2021/01/31 02:22:39;;;;;;;23.10;12.55;;;;;;;-3.90;82.87;99199.45;1642735;85;25829;-81
2021/01/31 02:25:57;;;;;;;22.52;10.48;;;;;;;-3.92;82.89;99204.30;1642471;85;25850;-81
2021/01/31 02:28:55;;;;;;;22.55;11.28;;;;;;;-3.91;82.74;99199.54;1642025;84;25737;-81
2021/01/31 02:31:54;;;;;;;21.42;11.35;;;;;;;-3.99;82.79;99200.04;1645963;85;26612;-81
2021/01/31 02:34:37;;;;;;;23.87;11.63;;;;;;;-3.95;82.79;99198.13;1642000;85;25919;-81
2021/01/31 02:37:27;;;;;;;24.32;11.03;;;;;;;-3.94;82.86;99200.55;1637254;84;26350;-81
2021/01/31 02:40:14;;;;;;;22.48;12.37;;;;;;;-3.92;82.66;99202.55;1642978;85;25737;-81
2021/01/31 02:43:02;;;;;;;24.07;11.97;;;;;;;-3.93;82.71;99206.04;1642205;85;25767;-81
2021/01/31 02:45:43;;;;;;;23.80;11.63;;;;;;;-3.93;82.69;99202.64;1647167;84;25511;-81
2021/01/31 02:48:17;;;;;;;21.75;11.00;;;;;;;-3.94;82.56;99210.77;1643972;84;25902;-81
2021/01/31 02:50:51;;;;;;;20.90;10.20;;;;;;;-3.96;82.62;99217.70;1640838;84;25810;-81
2021/01/31 02:53:27;;;;;;;22.52;10.80;;;;;;;-3.99;82.40;99208.97;1642687;85;26679;-81
2021/01/31 02:56:10;;;;;;;21.33;10.90;;;;;;;-4.02;82.52;99203.61;1642969;84;26388;-81
2021/01/31 02:58:45;;;;;;;21.95;11.28;;;;;;;-4.00;82.58;99207.34;1638592;85;25766;-81
2021/01/31 03:01:40;;;;;;;20.27;9.75;;;;;;;-4.01;82.32;99207.00;1642093;84;25780;-80
2021/01/31 03:04:17;;;;;;;24.43;13.98;;;;;;;-4.09;82.18;99206.69;1643247;85;25762;-81
2021/01/31 03:06:49;;;;;;;18.73;10.63;;;;;;;-4.16;82.13;99209.27;1642740;84;25687;-81
2021/01/31 03:09:42;;;;;;;20.40;9.98;;;;;;;-4.21;82.22;99209.56;1642421;85;26026;-81
2021/01/31 03:12:20;;;;;;;17.12;9.58;;;;;;;-4.22;82.16;99209.22;1620323;85;25854;-81
2021/01/31 03:14:57;;;;;;;16.35;9.68;;;;;;;-4.29;82.00;99211.80;1644818;84;26410;-81
2021/01/31 03:17:43;;;;;;;21.57;10.38;;;;;;;-4.34;82.01;99215.09;1644647;84;25853;-81
2021/01/31 03:20:17;;;;;;;18.67;9.98;;;;;;;-4.39;82.04;99215.41;1642204;85;25780;-81
2021/01/31 03:22:48;;;;;;;20.25;10.58;;;;;;;-4.38;82.13;99221.33;1642820;85;25795;-81
2021/01/31 03:25:25;;;;;;;20.50;10.00;;;;;;;-4.39;81.98;99220.52;1643567;84;25843;-81
2021/01/31 03:27:52;;;;;;;19.82;9.85;;;;;;;-4.40;81.92;99223.14;1640546;85;25564;-81
2021/01/31 03:30:19;;;;;;;18.65;10.30;;;;;;;-4.49;81.76;99222.01;1647482;84;25754;-81
2021/01/31 03:32:59;;;;;;;21.00;10.15;;;;;;;-4.52;81.78;99230.67;1642774;85;25786;-81
2021/01/31 03:35:42;;;;;;;18.65;9.55;;;;;;;-4.56;81.65;99236.86;1643434;84;26685;-80
2021/01/31 03:38:22;;;;;;;19.82;9.45;;;;;;;-4.63;81.50;99231.00;1642463;84;25829;-81
2021/01/31 03:40:54;;;;;;;22.62;10.08;;;;;;;-4.70;81.61;99231.82;1643331;85;26515;-81
2021/01/31 03:43:21;;;;;;;16.40;8.50;;;;;;;-4.72;81.61;99229.81;1642119;85;25833;-81
2021/01/31 03:46:14;;;;;;;18.00;9.43;;;;;;;-4.76;81.47;99235.57;1643621;85;25857;-81
2021/01/31 03:49:14;;;;;;;21.50;11.50;;;;;;;-4.82;81.41;99237.23;1614065;87;25906;-81
2021/01/31 03:51:41;;;;;;;23.50;10.45;;;;;;;-4.86;81.39;99249.79;1612436;86;26643;-81
2021/01/31 03:54:08;;;;;;;24.67;10.68;;;;;;;-4.91;81.49;99248.82;1628279;85;25623;-81
2021/01/31 03:56:42;;;;;;;22.80;10.30;;;;;;;-4.89;81.36;99252.99;1627974;85;25842;-81
2021/01/31 03:59:11;;;;;;;19.82;10.25;;;;;;;-4.92;81.35;99254.81;1623196;86;25857;-81
2021/01/31 04:01:39;;;;;;;23.57;10.85;;;;;;;-4.97;81.11;99254.27;1644361;85;26431;-81
2021/01/31 04:04:29;;;;;;;22.75;11.80;;;;;;;-5.04;81.12;99256.04;1639293;85;25765;-81
2021/01/31 04:06:58;;;;;;;19.05;10.05;;;;;;;-5.09;81.03;99261.40;1643425;84;25782;-82
2021/01/31 04:09:26;;;;;;;18.75;9.83;;;;;;;-5.17;81.01;99256.77;1649086;84;26497;-81
2021/01/31 04:12:03;;;;;;;22.27;11.07;;;;;;;-5.24;80.83;99260.61;1653597;84;26365;-81
2021/01/31 04:14:55;;;;;;;19.57;9.37;;;;;;;-5.30;80.80;99258.41;1652465;84;26543;-81
2021/01/31 04:17:23;;;;;;;18.37;10.08;;;;;;;-5.38;80.64;99263.14;1653418;84;25357;-81
2021/01/31 04:19:49;;;;;;;18.03;8.67;;;;;;;-5.40;80.75;99264.98;1652286;84;26013;-81
2021/01/31 04:22:15;;;;;;;21.62;10.05;;;;;;;-5.44;80.65;99269.41;1653337;84;26370;-81
2021/01/31 04:24:42;;;;;;;19.77;10.17;;;;;;;-5.44;80.83;99271.97;1654254;84;25914;-81
2021/01/31 04:27:08;;;;;;;19.63;9.70;;;;;;;-5.42;80.76;99274.43;1653869;84;26630;-81
2021/01/31 04:29:35;;;;;;;19.25;9.70;;;;;;;-5.44;80.67;99269.87;1653057;84;25897;-81
2021/01/31 04:32:03;;;;;;;16.70;8.18;;;;;;;-5.46;80.63;99283.95;1653508;84;25903;-81
2021/01/31 04:34:29;;;;;;;17.90;9.37;;;;;;;-5.49;80.48;99284.59;1652422;84;25981;-81
2021/01/31 04:36:55;;;;;;;19.73;9.38;;;;;;;-5.56;80.29;99284.61;1657941;84;25897;-81
2021/01/31 04:39:22;;;;;;;18.37;9.20;;;;;;;-5.63;80.34;99284.13;1657484;84;25779;-81
2021/01/31 04:41:49;;;;;;;19.48;9.73;;;;;;;-5.69;80.47;99283.22;1657695;84;26480;-81
2021/01/31 04:44:20;;;;;;;22.67;10.80;;;;;;;-5.71;80.54;99285.84;1659194;84;25861;-81
2021/01/31 04:46:52;;;;;;;20.80;10.93;;;;;;;-5.74;80.64;99280.12;1657276;84;26301;-81
2021/01/31 04:49:57;;;;;;;20.92;10.58;;;;;;;-5.70;80.88;99286.66;1657800;84;25854;-81
2021/01/31 04:52:52;;;;;;;21.50;10.58;;;;;;;-5.71;80.67;99291.39;1656488;84;25866;-80
2021/01/31 04:55:49;;;;;;;25.40;11.23;;;;;;;-5.72;80.79;99299.95;1658576;84;25870;-80
2021/01/31 04:58:22;;;;;;;23.83;10.55;;;;;;;-5.72;80.84;99292.31;1659692;84;26438;-80
2021/01/31 05:00:59;;;;;;;24.00;11.77;;;;;;;-5.72;80.87;99296.94;1657487;84;26429;-80
2021/01/31 05:03:28;;;;;;;23.87;10.90;;;;;;;-5.71;80.87;99302.84;1657886;84;26018;-80
2021/01/31 05:06:06;;;;;;;25.52;10.70;;;;;;;-5.71;80.73;99302.84;1659006;84;25805;-79
2021/01/31 05:08:33;;;;;;;21.87;11.47;;;;;;;-5.72;80.76;99304.58;1657363;84;25788;-80
2021/01/31 05:11:13;;;;;;;21.57;11.43;;;;;;;-5.72;80.71;99308.39;1654740;84;25738;-80
2021/01/31 05:13:57;;;;;;;19.80;9.50;;;;;;;-5.76;80.60;99309.46;1605403;87;26023;-80
2021/01/31 05:16:24;;;;;;;20.07;10.67;;;;;;;-5.84;80.48;99313.73;1603225;87;26024;-80
2021/01/31 05:18:55;;;;;;;19.37;9.97;;;;;;;-5.85;80.67;99313.81;1601687;87;26514;-80
2021/01/31 05:21:25;;;;;;;19.53;9.80;;;;;;;-5.81;80.93;99314.83;1603761;86;26064;-80
2021/01/31 05:23:57;;;;;;;20.63;10.77;;;;;;;-5.77;81.00;99316.73;1605370;87;25845;-80
2021/01/31 05:26:35;;;;;;;23.87;10.82;;;;;;;-5.75;80.90;99314.94;1603402;87;26443;-80
2021/01/31 05:29:04;;;;;;;18.17;9.93;;;;;;;-5.71;81.05;99318.11;1603142;86;25991;-80
2021/01/31 05:31:35;;;;;;;21.70;10.15;;;;;;;-5.65;81.05;99323.69;1603968;87;25394;-80
2021/01/31 05:34:03;;;;;;;20.17;9.90;;;;;;;-5.59;81.02;99325.06;1603093;87;26614;-80
2021/01/31 05:36:33;;;;;;;21.03;10.57;;;;;;;-5.60;81.02;99319.12;1602825;87;26436;-80
2021/01/31 05:39:02;;;;;;;18.20;10.33;;;;;;;-5.52;80.85;99331.88;1605251;87;25882;-80
2021/01/31 05:41:37;;;;;;;23.80;11.75;;;;;;;-5.49;80.93;99331.69;1607701;87;26001;-80
2021/01/31 05:44:20;;;;;;;22.80;10.37;;;;;;;-5.43;80.99;99332.60;1606003;86;25605;-80
2021/01/31 05:46:52;;;;;;;22.07;11.77;;;;;;;-5.46;80.52;99334.06;1604575;87;25859;-80
2021/01/31 05:49:46;;;;;;;24.03;11.23;;;;;;;-5.44;80.67;99333.52;1603213;86;26030;-81
2021/01/31 05:52:27;;;;;;;21.17;10.30;;;;;;;-5.41;80.83;99332.88;1652370;84;27026;-80
2021/01/31 05:54:55;;;;;;;19.53;9.43;;;;;;;-5.31;80.99;99340.81;1654383;84;26877;-81
2021/01/31 05:57:30;;;;;;;17.20;8.70;;;;;;;-5.20;80.99;99349.91;1652344;84;25872;-81
2021/01/31 06:00:01;;;;;;;17.80;8.70;;;;;;;-5.14;80.94;99347.00;1653777;84;26605;-81
2021/01/31 06:02:31;;;;;;;17.48;8.60;;;;;;;-5.05;81.08;99345.63;1652185;84;25791;-81
2021/01/31 06:05:15;;;;;;;18.70;10.43;;;;;;;-4.99;81.14;99334.28;1653502;84;33212;-81
2021/01/31 06:07:43;;;;;;;20.48;11.63;;;;;;;-4.91;80.98;99338.00;1652776;84;26355;-81
2021/01/31 06:10:17;;;;;;;17.15;9.40;;;;;;;-4.85;80.91;99348.28;1654696;84;25896;-81
2021/01/31 06:23:55;;;;;;;20.33;12.33;;;;;;;-4.28;79.79;99357.09;1749756;77;25674;-80
2021/01/31 06:26:27;;;;;;;22.93;11.85;;;;;;;-4.33;79.54;99355.28;1707205;82;26373;-80
2021/01/31 06:29:07;;;;;;;20.95;10.43;;;;;;;-4.36;79.46;99362.31;1690740;82;26542;-79
2021/01/31 06:31:53;;;;;;;18.80;10.35;;;;;;;-4.43;79.32;99361.86;1701170;81;25842;-80
2021/01/31 06:34:20;;;;;;;20.72;11.45;;;;;;;-4.46;79.70;99362.05;1719304;80;26539;-79
2021/01/31 06:36:57;;;;;;;18.65;9.95;;;;;;;-4.49;79.48;99366.88;1697344;81;25897;-80
2021/01/31 06:39:38;;;;;;;16.23;8.95;;;;;;;-4.57;79.42;99371.62;1737057;80;26778;-80
2021/01/31 06:42:31;;;;;;;16.20;9.95;;;;;;;-4.59;79.59;99377.27;1720593;80;25758;-80
2021/01/31 06:45:11;;;;;;;18.45;11.05;;;;;;;-4.56;80.02;99367.34;1691697;82;26533;-80
2021/01/31 06:47:55;;;;;;;20.23;9.48;;;;;;;-4.52;80.23;99364.52;1703774;81;26454;-79
2021/01/31 06:50:43;;;;;;;20.88;9.13;;;;;;;-4.44;80.27;99356.41;1713722;81;26244;-79
2021/01/31 06:53:36;;;;;;;18.57;9.10;;;;;;;-4.40;80.11;99351.92;1715564;81;25740;-79
2021/01/31 06:56:39;;;;;;;17.62;9.98;;;;;;;-4.45;79.79;99352.20;1696344;82;27270;-79
2021/01/31 06:59:14;;;;;;;16.80;9.35;;;;;;;-4.41;80.45;99363.86;1715697;81;26484;-79
2021/01/31 07:01:57;;;;;;;17.82;10.20;;;;;;;-4.40;80.07;99369.78;1713796;81;25743;-79
2021/01/31 07:04:58;;;;;;;16.17;9.68;;;;;;;-4.42;79.73;99371.59;1692147;82;25915;-79
2021/01/31 07:07:39;;;;;;;;;;;;;;;-4.50;79.49;99374.18;1699978;82;25800;-82
2021/01/31 07:10:14;;;;;;;16.97;9.65;;;;;;;-4.53;79.31;99382.02;1695195;82;26369;-81
2021/01/31 07:13:13;;;;;;;15.95;9.63;;;;;;;-4.63;78.88;99391.13;1736061;81;25684;-82
2021/01/31 07:16:08;;;;;;;19.73;9.40;;;;;;;-4.65;79.07;99390.39;1660614;84;25774;-81
2021/01/31 07:18:46;;;;;;;17.65;9.58;;;;;;;-4.66;79.11;99398.16;1662486;84;26946;-82
2021/01/31 07:21:39;;;;;;;20.10;8.68;;;;;;;-4.69;79.04;99393.59;1660105;84;25881;-82
2021/01/31 07:24:11;;;;;;;14.75;8.95;;;;;;;-4.68;79.06;99395.68;1626189;84;25901;-80
2021/01/31 07:26:57;;;;;;;17.90;9.83;;;;;;;-4.61;79.31;99396.12;1635418;84;25896;-82
2021/01/31 07:29:34;;;;;;;17.27;9.30;;;;;;;-4.58;79.13;99408.70;1654433;84;26013;-82
2021/01/31 07:32:06;;;;;;;22.52;10.60;;;;;;;-4.52;79.48;99412.16;1646397;85;26530;-82
2021/01/31 07:34:43;;;;;;;29.80;14.55;;;;;;;-4.43;79.27;99410.77;1646388;85;26002;-82
2021/01/31 07:37:17;;;;;;;27.15;13.30;;;;;;;-4.35;79.56;99413.67;1606501;84;26354;-82
2021/01/31 07:39:52;;;;;;;18.10;10.32;;;;;;;-4.29;79.28;99413.28;1653310;84;25885;-81
2021/01/31 07:42:20;;;;;;;19.70;10.28;;;;;;;-4.21;79.37;99410.27;1649521;84;25891;-81
2021/01/31 07:44:52;;;;;;;18.25;9.70;;;;;;;-4.17;78.93;99409.19;1644003;84;26516;-81
2021/01/31 07:47:22;;;;;;;21.55;10.53;;;;;;;-4.16;78.47;99414.64;1625862;84;25791;-81
2021/01/31 07:50:03;;;;;;;20.00;10.98;;;;;;;-4.14;78.76;99416.18;1657468;84;26007;-81
2021/01/31 07:52:46;;;;;;;22.50;11.97;;;;;;;-4.06;78.90;99421.63;1711255;81;25722;-81
2021/01/31 07:55:33;;;;;;;20.50;11.20;;;;;;;-4.00;78.88;99423.44;1729914;81;25693;-81
2021/01/31 07:58:22;;;;;;;21.37;12.30;;;;;;;-3.90;78.58;99427.03;1730174;80;25780;-81
2021/01/31 08:00:51;;;;;;;22.93;12.82;;;;;;;-3.89;78.42;99425.67;1727243;81;26424;-81
2021/01/31 08:03:37;;;;;;;26.75;13.22;;;;;;;-3.88;78.33;99426.02;1724795;81;26672;-81
2021/01/31 08:06:12;;;;;;;20.75;11.25;;;;;;;-3.87;77.83;99425.12;1728798;80;26245;-80
2021/01/31 08:08:44;;;;;;;26.45;12.43;;;;;;;-3.86;77.58;99434.41;1712045;81;25779;-80
2021/01/31 08:11:19;;;;;;;30.52;13.88;;;;;;;-3.84;77.75;99435.60;1718396;81;26684;-81
2021/01/31 08:13:51;;;;;;;27.52;13.98;;;;;;;-3.84;77.78;99440.70;1694681;82;26187;-80
2021/01/31 08:16:49;;;;;;;23.07;11.65;;;;;;;-3.80;77.70;99441.67;1684798;83;26171;-80
2021/01/31 08:19:29;;;;;;;24.60;12.78;;;;;;;-3.77;77.44;99441.12;1637792;84;25949;-80
2021/01/31 08:22:01;;;;;;;24.47;12.63;;;;;;;-3.72;77.03;99441.66;1644465;84;25864;-80
2021/01/31 08:25:07;;;;;;;27.35;13.22;;;;;;;-3.73;76.90;99445.14;1649825;84;26006;-81
2021/01/31 08:27:49;;;;;;;18.45;10.55;;;;;;;-3.68;77.32;99446.95;1608579;86;25592;-81
2021/01/31 08:30:23;;;;;;;23.57;13.03;;;;;;;-3.61;76.83;99454.56;1609893;86;25800;-81
2021/01/31 08:33:04;;;;;;;26.20;12.63;;;;;;;-3.61;76.71;99451.55;1621774;87;25587;-81
2021/01/31 08:35:47;;;;;;;25.20;14.33;;;;;;;-3.59;76.59;99451.45;1625980;86;25812;-81
2021/01/31 08:38:31;;;;;;;25.75;13.53;;;;;;;-3.57;76.61;99454.27;1621646;86;25956;-81
2021/01/31 08:41:06;;;;;;;21.27;12.35;;;;;;;-3.50;76.55;99456.44;1615821;87;25914;-81
2021/01/31 08:43:49;;;;;;;20.72;11.28;;;;;;;-3.47;76.33;99456.23;1615335;87;26017;-81
2021/01/31 08:46:32;;;;;;;25.15;12.25;;;;;;;-3.45;75.22;99466.71;1617600;86;25956;-80
2021/01/31 08:49:13;;;;;;;28.50;13.28;;;;;;;-3.48;75.45;99473.77;1626236;86;25832;-81
2021/01/31 08:51:45;;;;;;;26.40;13.00;;;;;;;-3.50;75.58;99470.48;1633188;85;26389;-81
2021/01/31 08:54:19;;;;;;;25.68;13.88;;;;;;;-3.44;76.08;99470.92;1618565;86;25762;-80
2021/01/31 08:56:59;;;;;;;23.25;13.40;;;;;;;-3.38;76.08;99475.63;1636669;86;25823;-81
2021/01/31 08:59:39;;;;;;;23.12;12.53;;;;;;;-3.33;76.20;99468.12;1696491;81;32788;-80
2021/01/31 09:02:18;;;;;;;;;;;;;;;-3.41;75.29;99455.83;1711633;82;26323;-81
2021/01/31 09:04:55;;;;;;;25.55;12.28;;;;;;;-3.33;75.32;99480.89;1711489;82;25745;-81
2021/01/31 09:07:37;;;;;;;24.75;12.63;;;;;;;-3.31;75.15;99482.43;1729556;80;25935;-81
2021/01/31 09:10:38;;;;;;;22.37;10.93;;;;;;;-3.27;75.53;99490.27;1754050;80;26676;-81
2021/01/31 09:13:30;;;;;;;21.05;12.88;;;;;;;-3.20;75.11;99499.16;1721662;80;26389;-81
2021/01/31 09:16:19;;;;;;;22.13;12.43;;;;;;;-3.20;74.87;99494.52;1749121;80;25849;-81
2021/01/31 09:18:46;;;;;;;21.30;12.35;;;;;;;-3.24;74.14;99499.02;1742553;80;25769;-81
2021/01/31 09:21:29;;;;;;;21.80;12.78;;;;;;;-3.25;73.95;99497.36;1692370;81;25718;-80
2021/01/31 09:24:02;;;;;;;18.37;10.10;;;;;;;-3.27;74.39;99492.02;1719179;81;26384;-80
2021/01/31 09:26:30;;;;;;;18.10;10.80;;;;;;;-3.28;73.98;99496.28;1697119;82;25842;-80
2021/01/31 09:28:59;;;;;;;20.55;12.18;;;;;;;-3.25;73.50;99501.19;1716808;81;25932;-80
2021/01/31 09:31:28;;;;;;;25.30;13.43;;;;;;;-3.26;74.25;99500.03;1713692;81;25836;-80
2021/01/31 09:34:00;;;;;;;21.17;12.73;;;;;;;-3.22;74.28;99503.58;1715645;81;32936;-81
2021/01/31 09:36:33;;;;;;;23.90;13.70;;;;;;;-3.18;74.27;99513.13;1663272;83;26534;-81
2021/01/31 09:39:03;;;;;;;25.45;12.80;;;;;;;-3.17;73.88;99509.19;1706848;82;26436;-80
2021/01/31 09:41:32;;;;;;;23.70;13.22;;;;;;;-3.18;74.10;99512.67;1674175;84;25993;-80
2021/01/31 09:44:06;;;;;;;25.17;14.25;;;;;;;-3.19;73.01;99517.89;1681079;83;25587;-81
2021/01/31 09:46:34;;;;;;;24.80;11.48;;;;;;;-3.27;73.22;99525.23;1676392;83;25815;-81
2021/01/31 09:49:13;;;;;;;29.48;13.32;;;;;;;-3.26;73.35;99517.91;1686909;82;25896;-81
2021/01/31 09:51:37;;;;;;;25.57;13.90;;;;;;;-3.30;73.10;99517.30;1647550;84;25993;-81
2021/01/31 09:54:18;;;;;;;28.77;15.65;;;;;;;-3.30;73.32;99519.02;1691466;82;25793;-81
2021/01/31 09:56:52;;;;;;;27.25;14.25;;;;;;;-3.30;73.02;99522.84;1740296;80;25695;-81
2021/01/31 09:59:32;;;;;;;22.27;12.80;;;;;;;-3.31;73.25;99529.70;1695076;81;25854;-81
2021/01/31 10:02:18;;;;;;;25.37;12.65;;;;;;;-3.35;72.87;99534.19;1716648;81;26520;-81
2021/01/31 10:04:55;;;;;;;21.37;12.25;;;;;;;-3.33;72.96;99527.69;1714534;81;25789;-81
2021/01/31 10:07:35;;;;;;;20.40;9.10;;;;;;;-3.29;73.63;99530.89;1705490;81;25857;-81
2021/01/31 10:10:33;;;;;;;22.52;11.83;;;;;;;-3.20;72.99;99530.29;1723073;81;26521;-81
2021/01/31 10:13:34;;;;;;;22.20;11.93;;;;;;;-3.24;72.19;99527.59;1703537;81;25823;-81
2021/01/31 10:16:06;;;;;;;20.75;11.75;;;;;;;-3.32;72.12;99537.47;1692891;83;26501;-81
2021/01/31 10:18:37;;;;;;;21.97;12.37;;;;;;;-3.30;72.71;99533.06;1688708;83;25909;-80
2021/01/31 10:21:26;;;;;;;23.30;13.70;;;;;;;-3.25;72.36;99531.04;1700099;82;25915;-80
2021/01/31 10:24:06;;;;;;;20.25;12.00;;;;;;;-3.26;72.29;99537.89;1661696;85;25765;-80
2021/01/31 10:26:33;;;;;;;22.85;11.95;;;;;;;-3.21;71.76;99532.50;1623439;84;25952;-80
2021/01/31 10:29:04;;;;;;;28.05;13.08;;;;;;;-3.21;71.29;99536.33;1642157;85;25779;-81
2021/01/31 10:31:37;;;;;;;23.05;13.80;;;;;;;-3.20;71.88;99540.52;1639398;84;25973;-80
2021/01/31 10:34:09;;;;;;;24.40;13.08;;;;;;;-3.19;72.20;99541.70;1653179;85;25910;-81
2021/01/31 10:36:48;;;;;;;20.35;11.70;;;;;;;-3.14;71.59;99543.52;1663990;84;25754;-81
2021/01/31 10:39:20;;;;;;;20.10;11.75;;;;;;;-3.08;71.81;99538.47;1662239;85;26491;-81
2021/01/31 10:41:47;;;;;;;24.70;13.60;;;;;;;-3.06;71.70;99540.91;1654048;84;26647;-81
2021/01/31 10:44:25;;;;;;;21.77;13.22;;;;;;;-2.99;71.82;99538.33;1644012;85;26178;-81
2021/01/31 10:46:51;;;;;;;27.05;14.33;;;;;;;-2.99;70.82;99535.30;1648023;85;26538;-81
2021/01/31 10:49:17;;;;;;;28.42;15.65;;;;;;;-3.03;70.96;99539.42;1650336;84;26185;-82
2021/01/31 10:51:45;;;;;;;23.00;13.05;;;;;;;-2.98;71.31;99543.78;1682852;83;25890;-82
2021/01/31 10:54:13;;;;;;;24.70;13.32;;;;;;;-2.92;71.47;99544.23;1699281;83;25952;-82
2021/01/31 10:56:39;;;;;;;27.02;15.08;;;;;;;-2.87;71.53;99542.63;1693442;83;26097;-82
2021/01/31 10:59:06;;;;;;;22.85;14.13;;;;;;;-2.77;71.74;99549.25;1692702;83;25904;-82
2021/01/31 11:01:32;;;;;;;25.55;14.68;;;;;;;-2.75;70.71;99546.14;1723545;80;26627;-82
2021/01/31 11:03:59;;;;;;;22.00;12.37;;;;;;;-2.65;71.66;99544.59;1713483;81;25957;-82
2021/01/31 11:06:27;;;;;;;24.23;13.03;;;;;;;-2.65;70.10;99547.16;1717082;81;26298;-82
2021/01/31 11:08:54;;;;;;;24.10;13.75;;;;;;;-2.70;70.51;99543.64;1717038;81;25684;-82
2021/01/31 11:11:23;;;;;;;24.18;13.22;;;;;;;-2.61;70.66;99549.08;1717556;81;25878;-82
2021/01/31 11:13:50;;;;;;;20.32;13.15;;;;;;;-2.53;71.05;99545.08;1717770;81;25793;-82
2021/01/31 11:16:18;;;;;;;23.57;13.38;;;;;;;-2.41;70.93;99543.91;1712238;81;25838;-82
2021/01/31 11:18:46;;;;;;;21.55;13.53;;;;;;;-2.38;70.32;99544.50;1713154;81;26473;-82
2021/01/31 11:21:17;;;;;;;19.50;12.05;;;;;;;-2.36;70.71;99538.02;1712890;81;26589;-82
2021/01/31 11:23:43;;;;;;;24.10;12.07;;;;;;;-2.36;69.71;99549.07;1709064;81;25727;-83
2021/01/31 11:26:10;;;;;;;22.42;12.37;;;;;;;-2.41;69.77;99540.06;1710048;81;25693;-82
2021/01/31 11:28:36;;;;;;;23.73;13.95;;;;;;;-2.42;69.65;99536.69;1712004;80;25950;-83
2021/01/31 11:31:02;;;;;;;20.12;13.35;;;;;;;-2.43;70.02;99536.31;1718949;81;26418;-82
2021/01/31 11:33:29;;;;;;;25.10;12.95;;;;;;;-2.39;69.45;99535.20;1736155;80;25761;-83
2021/01/31 11:35:55;;;;;;;21.33;13.20;;;;;;;-2.33;69.99;99531.41;1748518;79;26434;-82
2021/01/31 11:38:21;;;;;;;20.35;12.35;;;;;;;-2.27;69.48;99532.27;1714273;80;26687;-82
2021/01/31 11:40:48;;;;;;;25.75;13.60;;;;;;;-2.29;69.31;99532.39;1747188;80;25710;-83
2021/01/31 11:43:14;;;;;;;25.70;12.60;;;;;;;-2.16;70.19;99536.20;1749306;80;25779;-83
2021/01/31 11:45:41;;;;;;;23.47;14.15;;;;;;;-2.07;69.20;99532.22;1733683;81;26319;-82
2021/01/31 11:48:07;;;;;;;30.30;18.42;;;;;;;-2.10;68.41;99525.56;1707697;81;26301;-83
2021/01/31 11:50:33;;;;;;;26.27;14.58;;;;;;;-2.08;69.07;99519.04;1747684;80;26353;-81
2021/01/31 11:53:00;;;;;;;24.10;13.30;;;;;;;-2.05;69.55;99515.83;1750619;79;26454;-81
2021/01/31 11:55:26;;;;;;;22.00;14.33;;;;;;;-2.03;68.89;99524.20;1749760;79;26329;-82
2021/01/31 11:57:52;;;;;;;25.55;15.35;;;;;;;-2.01;69.32;99521.08;1743527;80;25792;-81
2021/01/31 12:00:19;;;;;;;21.07;13.35;;;;;;;-1.93;69.35;99521.02;1746973;80;25824;-82
2021/01/31 12:02:46;;;;;;;20.62;11.85;;;;;;;-1.94;68.47;99529.14;1748117;80;25893;-82
2021/01/31 12:05:17;;;;;;;22.37;12.90;;;;;;;-2.01;68.27;99525.39;1748832;80;25942;-82